createdAt,value
2018-11-02T05:37:46.699Z,3
2018-11-02T05:44:17.095Z,7
2018-11-02T05:46:47.337Z,10
2018-11-02T05:49:17.436Z,13
2018-11-02T05:50:47.511Z,17
2018-11-02T05:52:17.596Z,20
2018-11-02T05:52:47.623Z,23
2018-11-02T05:53:47.691Z,27
2018-11-02T05:54:17.835Z,30
2018-11-02T05:54:47.748Z,33
2018-11-02T05:55:17.765Z,37
2018-11-02T05:55:47.817Z,40
2018-11-02T05:56:17.840Z,43
2018-11-02T05:56:47.882Z,47
2018-11-02T05:57:17.986Z,50
2018-11-02T05:58:17.919Z,53
2018-11-02T05:58:48.008Z,57
2018-11-02T05:59:48.075Z,60
2018-11-02T06:00:48.137Z,63
2018-11-02T06:01:18.153Z,67
2018-11-02T06:01:48.122Z,70
2018-11-02T06:02:18.270Z,77
2018-11-02T06:02:48.245Z,83
2018-11-02T06:03:18.276Z,90
2018-11-02T06:03:48.294Z,97
2018-11-02T06:04:18.348Z,103
2018-11-02T06:04:48.370Z,110
2018-11-02T06:05:18.387Z,117
2018-11-02T06:05:48.430Z,127
2018-11-02T06:06:18.467Z,133
2018-11-02T06:06:48.485Z,143
2018-11-02T06:07:18.602Z,150
2018-11-02T06:07:48.664Z,153
2018-11-02T06:08:18.580Z,160
2018-11-02T06:08:48.601Z,167
2018-11-02T06:09:18.648Z,173
2018-11-02T06:09:48.662Z,183
2018-11-02T06:10:18.725Z,193
2018-11-02T06:10:48.733Z,200
2018-11-02T06:11:18.759Z,203
2018-11-02T06:12:48.910Z,207
2018-11-02T06:13:18.883Z,213
2018-11-02T06:13:48.908Z,220
2018-11-02T06:14:18.949Z,233
2018-11-02T06:14:48.967Z,253
2018-11-02T06:15:19.025Z,277
2018-11-02T06:15:49.025Z,300
2018-11-02T06:16:19.071Z,320
2018-11-02T06:16:49.241Z,340
2018-11-02T06:17:19.128Z,357
2018-11-02T06:17:49.659Z,367
2018-11-02T06:18:19.204Z,370
2018-11-02T06:18:49.223Z,367
2018-11-02T06:19:49.276Z,370
2018-11-02T06:20:19.322Z,377
2018-11-02T06:20:49.343Z,390
2018-11-02T06:21:19.375Z,410
2018-11-02T06:21:49.413Z,427
2018-11-02T06:22:20.548Z,443
2018-11-02T06:22:49.525Z,467
2018-11-02T06:23:19.462Z,493
2018-11-02T06:23:49.516Z,520
2018-11-02T06:24:19.639Z,550
2018-11-02T06:24:49.596Z,573
2018-11-02T06:25:19.632Z,593
2018-11-02T06:25:49.657Z,610
2018-11-02T06:26:19.639Z,630
2018-11-02T06:26:49.681Z,643
2018-11-02T06:27:19.698Z,660
2018-11-02T06:27:49.848Z,677
2018-11-02T06:28:19.771Z,697
2018-11-02T06:28:49.797Z,723
2018-11-02T06:29:19.820Z,750
2018-11-02T06:29:49.865Z,780
2018-11-02T06:30:19.887Z,817
2018-11-02T06:30:49.935Z,853
2018-11-02T06:31:19.940Z,893
2018-11-02T06:31:50.043Z,923
2018-11-02T06:32:20.131Z,950
2018-11-02T06:32:50.271Z,970
2018-11-02T06:33:20.109Z,1000
2018-11-02T06:33:50.097Z,1037
2018-11-02T06:34:20.138Z,1070
2018-11-02T06:34:50.173Z,1097
2018-11-02T06:35:20.238Z,1120
2018-11-02T06:35:50.268Z,1137
2018-11-02T06:36:20.249Z,1150
2018-11-02T06:36:50.336Z,1160
2018-11-02T06:37:20.318Z,1167
2018-11-02T06:37:50.454Z,1180
2018-11-02T06:38:20.430Z,1203
2018-11-02T06:38:50.632Z,1197
2018-11-02T06:39:20.489Z,1193
2018-11-02T06:40:20.497Z,1197
2018-11-02T06:40:50.553Z,1210
2018-11-02T06:41:20.629Z,1237
2018-11-02T06:41:50.636Z,1277
2018-11-02T06:42:20.658Z,1317
2018-11-02T06:42:50.806Z,1407
2018-11-02T06:43:20.798Z,1517
2018-11-02T06:43:50.766Z,1627
2018-11-02T06:44:20.817Z,1703
2018-11-02T06:44:50.901Z,1687
2018-11-02T06:45:20.885Z,1623
2018-11-02T06:45:50.965Z,1567
2018-11-02T06:46:20.869Z,1503
2018-11-02T06:46:50.964Z,1480
2018-11-02T06:47:21.016Z,1500
2018-11-02T06:47:50.982Z,1543
2018-11-02T06:48:21.545Z,1590
2018-11-02T06:48:51.039Z,1643
2018-11-02T06:49:21.097Z,1703
2018-11-02T06:49:51.157Z,1787
2018-11-02T06:50:21.171Z,1890
2018-11-02T06:50:51.314Z,1997
2018-11-02T06:51:21.242Z,2130
2018-11-02T06:51:51.224Z,2307
2018-11-02T06:52:21.251Z,2453
2018-11-02T06:52:51.290Z,2543
2018-11-02T06:53:21.417Z,2600
2018-11-02T06:53:51.347Z,2603
2018-11-02T06:54:21.409Z,2657
2018-11-02T06:54:51.443Z,2700
2018-11-02T06:55:21.472Z,2800
2018-11-02T06:55:51.536Z,2927
2018-11-02T06:56:21.538Z,3047
2018-11-02T06:56:51.533Z,3120
2018-11-02T06:57:21.608Z,3173
2018-11-02T06:57:51.651Z,3180
2018-11-02T06:58:22.136Z,3023
2018-11-02T06:58:51.703Z,2890
2018-11-02T06:59:21.821Z,2770
2018-11-02T06:59:52.095Z,2653
2018-11-02T07:00:21.821Z,2613
2018-11-02T07:00:51.837Z,2647
2018-11-02T07:01:21.856Z,2700
2018-11-02T07:01:51.893Z,2767
2018-11-02T07:02:21.903Z,2813
2018-11-02T07:02:51.885Z,2870
2018-11-02T07:03:22.023Z,2920
2018-11-02T07:03:51.995Z,2973
2018-11-02T07:04:22.044Z,2963
2018-11-02T07:04:52.061Z,2977
2018-11-02T07:05:22.085Z,2897
2018-11-02T07:05:52.150Z,2910
2018-11-02T07:06:22.145Z,2920
2018-11-02T07:06:52.515Z,2940
2018-11-02T07:07:22.347Z,2920
2018-11-02T07:07:52.383Z,2923
2018-11-02T07:08:22.456Z,2973
2018-11-02T07:08:52.318Z,3050
2018-11-02T07:09:22.325Z,3120
2018-11-02T07:09:52.338Z,3267
2018-11-02T07:10:22.413Z,3327
2018-11-02T07:10:52.439Z,3230
2018-11-02T07:11:22.474Z,3127
2018-11-02T07:11:52.484Z,3120
2018-11-02T07:12:22.511Z,3233
2018-11-02T07:12:52.546Z,3260
2018-11-02T07:13:22.652Z,3193
2018-11-02T07:13:52.573Z,3253
2018-11-02T07:14:22.596Z,3337
2018-11-02T07:14:52.637Z,3300
2018-11-02T07:15:22.716Z,3313
2018-11-02T07:15:52.803Z,3217
2018-11-02T07:16:22.742Z,3170
2018-11-02T07:16:52.776Z,3193
2018-11-02T07:17:22.782Z,3280
2018-11-02T07:17:52.813Z,3363
2018-11-02T07:18:22.956Z,3433
2018-11-02T07:18:52.870Z,3397
2018-11-02T07:19:22.895Z,3317
2018-11-02T07:19:52.923Z,3300
2018-11-02T07:20:22.966Z,3320
2018-11-02T07:20:53.032Z,3347
2018-11-02T07:21:23.013Z,3357
2018-11-02T07:21:53.102Z,3373
2018-11-02T07:22:23.079Z,3423
2018-11-02T07:22:53.164Z,3390
2018-11-02T07:23:23.189Z,3420
2018-11-02T07:23:53.229Z,3443
2018-11-02T07:24:23.265Z,3483
2018-11-02T07:24:53.303Z,3500
2018-11-02T07:25:23.590Z,3537
2018-11-02T07:25:53.326Z,3570
2018-11-02T07:26:23.371Z,3560
2018-11-02T07:26:53.379Z,3587
2018-11-02T07:27:23.428Z,3630
2018-11-02T07:27:53.454Z,3673
2018-11-02T07:28:23.544Z,3730
2018-11-02T07:28:53.516Z,3750
2018-11-02T07:29:23.546Z,3727
2018-11-02T07:29:53.588Z,3770
2018-11-02T07:30:23.634Z,3837
2018-11-02T07:30:53.656Z,3847
2018-11-02T07:31:23.710Z,3840
2018-11-02T07:31:53.704Z,3883
2018-11-02T07:32:23.752Z,3860
2018-11-02T07:32:53.927Z,3870
2018-11-02T07:33:23.842Z,3893
2018-11-02T07:33:54.335Z,3990
2018-11-02T07:34:23.929Z,4000
2018-11-02T07:34:53.849Z,4003
2018-11-02T07:35:23.963Z,4053
2018-11-02T07:35:53.947Z,4110
2018-11-02T07:36:24.019Z,4080
2018-11-02T07:36:54.005Z,4280
2018-11-02T07:37:24.053Z,4477
2018-11-02T07:37:54.079Z,4553
2018-11-02T07:38:24.120Z,4807
2018-11-02T07:38:54.653Z,4553
2018-11-02T07:39:24.178Z,4547
2018-11-02T07:39:54.196Z,4580
2018-11-02T07:40:24.238Z,4617
2018-11-02T07:40:54.256Z,4480
2018-11-02T07:41:24.305Z,4447
2018-11-02T07:41:54.320Z,4560
2018-11-02T07:42:24.379Z,4870
2018-11-02T07:42:54.382Z,4907
2018-11-02T07:43:24.384Z,4767
2018-11-02T07:43:54.533Z,4933
2018-11-02T07:44:24.502Z,4633
2018-11-02T07:44:54.482Z,4427
2018-11-02T07:45:24.545Z,4433
2018-11-02T07:45:54.561Z,4453
2018-11-02T07:46:24.610Z,4480
2018-11-02T07:46:54.617Z,4670
2018-11-02T07:47:24.710Z,4863
2018-11-02T07:47:54.683Z,4617
2018-11-02T07:48:24.756Z,4887
2018-11-02T07:48:54.860Z,4693
2018-11-02T07:49:24.851Z,4727
2018-11-02T07:49:54.803Z,4693
2018-11-02T07:50:24.854Z,4853
2018-11-02T07:50:54.863Z,4727
2018-11-02T07:51:24.923Z,7387
2018-11-02T07:51:54.922Z,5790
2018-11-02T07:52:24.968Z,5187
2018-11-02T07:52:55.041Z,5070
2018-11-02T07:53:25.042Z,5097
2018-11-02T07:53:55.552Z,5187
2018-11-02T07:54:25.128Z,5330
2018-11-02T07:54:55.131Z,5710
2018-11-02T07:55:25.190Z,6023
2018-11-02T07:55:56.342Z,6223
2018-11-02T07:56:25.171Z,6293
2018-11-02T07:56:55.226Z,6833
2018-11-02T07:57:25.295Z,6720
2018-11-02T07:57:55.339Z,6617
2018-11-02T07:58:25.359Z,6427
2018-11-02T07:58:55.521Z,7353
2018-11-02T07:59:25.376Z,6527
2018-11-02T07:59:55.435Z,5577
2018-11-02T08:00:25.463Z,5650
2018-11-02T08:00:55.488Z,5877
2018-11-02T08:01:25.499Z,6173
2018-11-02T08:01:55.566Z,6387
2018-11-02T08:02:25.557Z,7097
2018-11-02T08:02:55.610Z,6600
2018-11-02T08:03:25.657Z,7183
2018-11-02T08:03:55.766Z,5710
2018-11-02T08:04:25.687Z,8050
2018-11-02T08:04:55.694Z,7937
2018-11-02T08:05:25.727Z,8153
2018-11-02T08:05:55.788Z,9817
2018-11-02T08:06:25.793Z,8370
2018-11-02T08:06:55.816Z,8393
2018-11-02T08:07:25.850Z,7063
2018-11-02T08:07:55.905Z,5333
2018-11-02T08:08:25.910Z,8300
2018-11-02T08:08:56.018Z,5563
2018-11-02T08:09:25.966Z,5987
2018-11-02T08:09:56.036Z,5923
2018-11-02T08:10:26.045Z,11930
2018-11-02T08:10:56.094Z,7537
2018-11-02T08:11:26.246Z,11903
2018-11-02T08:11:56.165Z,7087
2018-11-02T08:12:26.167Z,12120
2018-11-02T08:12:56.190Z,12143
2018-11-02T08:13:26.279Z,16473
2018-11-02T08:13:56.347Z,9337
2018-11-02T08:14:26.339Z,14793
2018-11-02T08:14:56.355Z,8613
2018-11-02T08:15:26.400Z,7753
2018-11-02T08:15:56.412Z,8450
2018-11-02T08:16:26.481Z,7783
2018-11-02T08:16:56.436Z,8663
2018-11-02T08:17:26.472Z,9940
2018-11-02T08:17:56.557Z,11823
2018-11-02T08:18:26.590Z,11760
2018-11-02T08:18:56.819Z,13340
2018-11-02T08:19:26.590Z,12870
2018-11-02T08:19:56.719Z,11350
2018-11-02T08:20:26.651Z,9470
2018-11-02T08:20:56.734Z,9813
2018-11-02T08:21:26.763Z,12120
2018-11-02T08:21:56.819Z,20520
2018-11-02T08:22:26.830Z,18440
2018-11-02T08:22:56.879Z,17903
2018-11-02T08:23:26.882Z,18610
2018-11-02T08:23:56.993Z,19017
2018-11-02T08:24:26.996Z,18080
2018-11-02T08:24:57.009Z,17113
2018-11-02T08:25:26.955Z,20587
2018-11-02T08:25:57.038Z,18570
2018-11-02T08:26:27.074Z,20713
2018-11-02T08:26:57.083Z,17160
2018-11-02T08:27:27.162Z,13730
2018-11-02T08:27:57.167Z,13653
2018-11-02T08:28:27.152Z,11107
2018-11-02T08:28:57.292Z,10443
2018-11-02T08:29:27.202Z,12047
2018-11-02T08:29:57.276Z,11237
2018-11-02T08:30:27.265Z,14167
2018-11-02T08:30:57.350Z,15260
2018-11-02T08:31:27.390Z,17333
2018-11-02T08:31:57.393Z,17813
2018-11-02T08:32:27.475Z,23610
2018-11-02T08:32:57.476Z,19830
2018-11-02T08:33:27.504Z,17583
2018-11-02T08:33:57.583Z,17013
2018-11-02T08:34:27.571Z,15237
2018-11-02T08:34:57.588Z,22410
2018-11-02T08:35:27.624Z,22230
2018-11-02T08:35:57.670Z,21483
2018-11-02T08:36:27.694Z,22623
2018-11-02T08:36:57.717Z,23477
2018-11-02T08:37:27.755Z,24577
2018-11-02T08:37:57.729Z,25657
2018-11-02T08:38:27.771Z,25450
2018-11-02T08:38:57.918Z,24643
2018-11-02T08:39:27.891Z,22550
2018-11-02T08:39:57.892Z,21893
2018-11-02T08:40:27.939Z,20373
2018-11-02T08:40:57.954Z,19480
2018-11-02T08:41:28.007Z,19040
2018-11-02T08:41:58.008Z,19860
2018-11-02T08:42:28.085Z,18280
2018-11-02T08:42:58.087Z,22487
2018-11-02T08:43:28.112Z,24960
2018-11-02T08:43:58.269Z,23797
2018-11-02T08:44:28.191Z,28420
2018-11-02T08:44:58.213Z,29460
2018-11-02T08:45:28.241Z,24733
2018-11-02T08:45:58.258Z,30827
2018-11-02T08:46:28.387Z,32640
2018-11-02T08:46:58.329Z,33743
2018-11-02T08:47:28.387Z,35167
2018-11-02T08:47:58.384Z,35750
2018-11-02T08:48:28.424Z,35697
2018-11-02T08:48:58.569Z,35457
2018-11-02T08:49:28.525Z,34633
2018-11-02T08:49:58.507Z,33577
2018-11-02T08:50:28.572Z,30897
2018-11-02T08:50:58.528Z,32077
2018-11-02T08:51:28.586Z,27537
2018-11-02T08:51:58.613Z,21750
2018-11-02T08:52:28.758Z,18483
2018-11-02T08:52:58.655Z,19573
2018-11-02T08:53:28.692Z,17810
2018-11-02T08:53:58.834Z,16183
2018-11-02T08:54:28.769Z,14887
2018-11-02T08:54:58.775Z,14243
2018-11-02T08:55:28.809Z,14033
2018-11-02T08:55:58.861Z,14390
2018-11-02T08:56:28.875Z,14733
2018-11-02T08:56:58.902Z,15360
2018-11-02T08:57:28.933Z,16437
2018-11-02T08:57:59.080Z,17870
2018-11-02T08:58:29.109Z,19040
2018-11-02T08:58:59.572Z,18547
2018-11-02T08:59:29.306Z,16607
2018-11-02T08:59:59.191Z,15507
2018-11-02T09:00:29.113Z,27623
2018-11-02T09:00:59.149Z,14927
2018-11-02T09:01:29.188Z,17247
2018-11-02T09:01:59.245Z,14583
2018-11-02T09:02:29.288Z,14500
2018-11-02T09:02:59.312Z,13830
2018-11-02T09:03:29.365Z,12953
2018-11-02T09:03:59.491Z,12460
2018-11-02T09:04:29.397Z,12797
2018-11-02T09:04:59.483Z,13330
2018-11-02T09:05:29.476Z,13440
2018-11-02T09:05:59.514Z,13167
2018-11-02T09:06:29.511Z,13113
2018-11-02T09:06:59.545Z,13230
2018-11-02T09:07:29.603Z,12780
2018-11-02T09:07:59.638Z,11783
2018-11-02T09:08:29.665Z,10900
2018-11-02T09:08:59.733Z,9810
2018-11-02T09:09:29.747Z,9327
2018-11-02T09:09:59.719Z,10053
2018-11-02T09:10:29.747Z,11140
2018-11-02T09:10:59.833Z,11740
2018-11-02T09:11:29.847Z,13177
2018-11-02T09:11:59.903Z,14997
2018-11-02T09:12:29.932Z,16590
2018-11-02T09:12:59.949Z,18580
2018-11-02T09:13:29.980Z,20743
2018-11-02T09:14:00.098Z,22477
2018-11-02T09:14:30.033Z,24993
2018-11-02T09:15:00.084Z,23373
2018-11-02T09:15:30.116Z,22393
2018-11-02T09:16:00.158Z,22203
2018-11-02T09:16:30.182Z,22977
2018-11-02T09:17:00.203Z,25227
2018-11-02T09:17:30.215Z,26893
2018-11-02T09:18:00.285Z,37920
2018-11-02T09:18:30.290Z,24250
2018-11-02T09:19:00.765Z,21847
2018-11-02T09:19:30.449Z,22283
2018-11-02T09:20:00.963Z,22153
2018-11-02T09:20:30.406Z,22410
2018-11-02T09:21:00.568Z,23223
2018-11-02T09:21:30.836Z,22607
2018-11-02T09:22:01.770Z,22013
2018-11-02T09:22:30.527Z,20867
2018-11-02T09:23:01.289Z,20210
2018-11-02T09:23:30.592Z,19207
2018-11-02T09:24:01.339Z,18033
2018-11-02T09:24:30.651Z,17267
2018-11-02T09:25:00.706Z,17090
2018-11-02T09:25:30.714Z,17610
2018-11-02T09:26:01.773Z,18573
2018-11-02T09:26:30.808Z,19520
2018-11-02T09:27:01.564Z,20300
2018-11-02T09:27:31.015Z,20127
2018-11-02T09:28:01.338Z,19523
2018-11-02T09:28:30.927Z,18453
2018-11-02T09:29:00.977Z,17023
2018-11-02T09:29:31.015Z,15600
2018-11-02T09:30:01.353Z,14607
2018-11-02T09:30:31.072Z,13907
2018-11-02T09:31:01.030Z,13513
2018-11-02T09:31:31.119Z,13530
2018-11-02T09:32:01.622Z,13900
2018-11-02T09:32:31.208Z,14043
2018-11-02T09:33:01.166Z,14053
2018-11-02T09:33:31.237Z,14047
2018-11-02T09:34:01.465Z,13460
2018-11-02T09:34:31.801Z,12860
2018-11-02T09:35:01.397Z,12520
2018-11-02T09:35:31.357Z,12223
2018-11-02T09:36:01.355Z,11850
2018-11-02T09:36:31.461Z,11910
2018-11-02T09:37:01.407Z,12250
2018-11-02T09:37:31.503Z,12600
2018-11-02T09:38:01.494Z,12960
2018-11-02T09:38:31.571Z,12827
2018-11-02T09:39:01.537Z,12510
2018-11-02T09:39:31.653Z,12367
2018-11-02T09:40:01.593Z,12023
2018-11-02T09:40:31.778Z,11457
2018-11-02T09:41:01.683Z,10790
2018-11-02T09:41:31.708Z,10260
2018-11-02T09:42:01.727Z,9957
2018-11-02T09:42:31.924Z,10117
2018-11-02T09:43:01.817Z,10523
2018-11-02T09:43:31.809Z,10600
2018-11-02T09:44:01.880Z,10417
2018-11-02T09:44:31.862Z,10107
2018-11-02T09:45:01.936Z,10050
2018-11-02T09:45:31.924Z,10257
2018-11-02T09:46:02.038Z,10477
2018-11-02T09:46:31.988Z,10800
2018-11-02T09:47:02.073Z,11250
2018-11-02T09:47:32.040Z,11780
2018-11-02T09:48:02.093Z,12317
2018-11-02T09:48:32.119Z,12727
2018-11-02T09:49:02.143Z,12833
2018-11-02T09:49:32.225Z,12580
2018-11-02T09:50:02.203Z,12187
2018-11-02T09:50:32.261Z,11697
2018-11-02T09:51:02.278Z,11327
2018-11-02T09:51:32.374Z,11097
2018-11-02T09:52:02.450Z,10960
2018-11-02T09:52:32.395Z,10970
2018-11-02T09:53:02.394Z,10983
2018-11-02T09:53:32.453Z,10990
2018-11-02T09:54:02.525Z,10843
2018-11-02T09:54:32.526Z,10610
2018-11-02T09:55:02.608Z,10577
2018-11-02T09:55:32.597Z,10777
2018-11-02T09:56:02.599Z,11067
2018-11-02T09:56:32.638Z,11403
2018-11-02T09:57:02.699Z,11603
2018-11-02T09:57:32.774Z,11633
2018-11-02T09:58:02.753Z,11427
2018-11-02T09:58:32.722Z,11357
2018-11-02T09:59:02.822Z,11420
2018-11-02T09:59:32.838Z,11603
2018-11-02T10:00:02.838Z,11683
2018-11-02T10:01:02.901Z,11793
2018-11-02T10:01:32.971Z,11897
2018-11-02T10:02:03.042Z,12057
2018-11-02T10:02:33.047Z,12313
2018-11-02T10:03:03.060Z,12717
2018-11-02T10:03:33.028Z,13153
2018-11-02T10:04:03.061Z,13537
2018-11-02T10:04:33.146Z,13783
2018-11-02T10:05:03.125Z,13900
2018-11-02T10:05:33.228Z,13953
2018-11-02T10:06:03.251Z,13937
2018-11-02T10:06:33.248Z,13920
2018-11-02T10:07:03.356Z,13857
2018-11-02T10:07:33.288Z,13830
2018-11-02T10:08:03.389Z,13840
2018-11-02T10:08:33.387Z,14027
2018-11-02T10:09:03.432Z,14353
2018-11-02T10:09:33.445Z,14707
2018-11-02T10:10:03.519Z,15070
2018-11-02T10:10:33.535Z,15550
2018-11-02T10:11:03.547Z,16050
2018-11-02T10:11:33.536Z,16430
2018-11-02T10:12:03.609Z,16813
2018-11-02T10:12:33.646Z,17573
2018-11-02T10:13:03.707Z,18350
2018-11-02T10:13:33.710Z,18883
2018-11-02T10:14:03.730Z,19580
2018-11-02T10:14:33.786Z,20357
2018-11-02T10:15:03.797Z,32270
2018-11-02T10:15:33.831Z,20993
2018-11-02T10:16:03.862Z,22257
2018-11-02T10:16:33.886Z,22797
2018-11-02T10:17:03.920Z,23363
2018-11-02T10:17:33.906Z,38490
2018-11-02T10:18:03.976Z,25390
2018-11-02T10:18:34.015Z,26100
2018-11-02T10:19:04.040Z,26030
2018-11-02T10:19:34.075Z,47093
2018-11-02T10:20:04.114Z,37973
2018-11-02T10:20:34.137Z,26953
2018-11-02T10:21:04.159Z,47780
2018-11-02T10:21:34.234Z,47283
2018-11-02T10:22:04.229Z,23743
2018-11-02T10:22:34.252Z,22903
2018-11-02T10:23:04.308Z,22677
2018-11-02T10:23:34.343Z,21750
2018-11-02T10:24:04.348Z,22207
2018-11-02T10:24:34.385Z,22963
2018-11-02T10:25:04.416Z,21203
2018-11-02T10:25:34.450Z,24973
2018-11-02T10:26:04.455Z,20377
2018-11-02T10:26:34.502Z,20030
2018-11-02T10:27:04.549Z,19933
2018-11-02T10:27:34.599Z,20277
2018-11-02T10:28:04.592Z,19943
2018-11-02T10:28:34.611Z,19620
2018-11-02T10:29:04.608Z,19780
2018-11-02T10:29:34.713Z,34090
2018-11-02T10:30:04.660Z,39040
2018-11-02T10:30:34.708Z,20337
2018-11-02T10:31:04.737Z,18440
2018-11-02T10:31:34.757Z,18927
2018-11-02T10:32:04.808Z,19560
2018-11-02T10:32:34.907Z,20160
2018-11-02T10:33:04.979Z,20277
2018-11-02T10:33:34.874Z,20557
2018-11-02T10:34:04.914Z,24320
2018-11-02T10:34:34.961Z,45690
2018-11-02T10:35:04.981Z,32713
2018-11-02T10:35:35.178Z,31730
2018-11-02T10:36:05.076Z,26900
2018-11-02T10:36:35.079Z,31717
2018-11-02T10:37:05.099Z,33037
2018-11-02T10:37:35.169Z,26437
2018-11-02T10:38:05.334Z,26837
2018-11-02T10:38:35.228Z,31820
2018-11-02T10:39:05.250Z,28020
2018-11-02T10:39:35.332Z,27310
2018-11-02T10:40:05.317Z,45667
2018-11-02T10:40:35.392Z,45637
2018-11-02T10:41:05.383Z,37523
2018-11-02T10:41:35.429Z,23450
2018-11-02T10:42:05.488Z,17383
2018-11-02T10:42:35.505Z,16330
2018-11-02T10:43:05.555Z,13597
2018-11-02T10:43:35.547Z,12580
2018-11-02T10:44:05.577Z,12850
2018-11-02T10:44:35.770Z,14333
2018-11-02T10:45:05.724Z,13407
2018-11-02T10:45:35.667Z,12873
2018-11-02T10:46:05.700Z,12140
2018-11-02T10:46:35.736Z,12630
2018-11-02T10:47:05.759Z,13970
2018-11-02T10:47:35.803Z,21013
2018-11-02T10:48:05.938Z,16170
2018-11-02T10:48:35.862Z,16180
2018-11-02T10:49:05.935Z,16727
2018-11-02T10:49:35.913Z,17793
2018-11-02T10:50:05.961Z,18927
2018-11-02T10:50:35.985Z,25060
2018-11-02T10:51:06.029Z,26553
2018-11-02T10:51:36.037Z,36787
2018-11-02T10:52:06.074Z,36347
2018-11-02T10:52:36.107Z,39910
2018-11-02T10:53:06.160Z,40747
2018-11-02T10:53:36.131Z,26370
2018-11-02T10:54:06.177Z,23783
2018-11-02T10:54:36.257Z,22067
2018-11-02T10:55:06.229Z,16120
2018-11-02T10:55:36.294Z,15710
2018-11-02T10:56:06.288Z,16690
2018-11-02T10:56:36.420Z,37733
2018-11-02T10:57:06.353Z,35693
2018-11-02T10:57:36.415Z,37977
2018-11-02T10:58:06.466Z,34803
2018-11-02T10:58:36.420Z,18450
2018-11-02T10:59:06.482Z,18500
2018-11-02T10:59:36.535Z,19990
2018-11-02T11:00:06.577Z,22400
2018-11-02T11:00:36.674Z,24500
2018-11-02T11:01:06.781Z,26330
2018-11-02T11:01:36.672Z,27530
2018-11-02T11:02:06.708Z,28280
2018-11-02T11:02:36.729Z,30333
2018-11-02T11:03:06.739Z,38657
2018-11-02T11:03:36.783Z,32920
2018-11-02T11:04:06.784Z,24867
2018-11-02T11:04:36.849Z,26697
2018-11-02T11:05:06.895Z,35177
2018-11-02T11:05:37.044Z,46507
2018-11-02T11:06:06.947Z,44980
2018-11-02T11:06:36.976Z,21560
2018-11-02T11:07:06.976Z,21057
2018-11-02T11:07:37.026Z,21177
2018-11-02T11:08:07.077Z,20737
2018-11-02T11:08:37.086Z,22420
2018-11-02T11:09:07.091Z,39907
2018-11-02T11:09:37.191Z,43080
2018-11-02T11:10:07.185Z,42903
2018-11-02T11:10:37.218Z,42713
2018-11-02T11:11:07.232Z,43180
2018-11-02T11:11:37.376Z,43230
2018-11-02T11:12:07.476Z,42653
2018-11-02T11:12:37.637Z,41113
2018-11-02T11:13:07.801Z,39390
2018-11-02T11:13:37.979Z,36563
2018-11-02T11:14:07.455Z,35953
2018-11-02T11:14:37.429Z,35037
2018-11-02T11:15:07.461Z,34667
2018-11-02T11:15:37.485Z,27813
2018-11-02T11:16:07.542Z,29873
2018-11-02T11:16:37.579Z,34800
2018-11-02T11:17:07.582Z,34040
2018-11-02T11:17:37.597Z,29850
2018-11-02T11:18:07.672Z,24517
2018-11-02T11:18:37.687Z,19560
2018-11-02T11:19:07.695Z,34040
2018-11-02T11:19:37.734Z,15017
2018-11-02T11:20:07.754Z,25300
2018-11-02T11:20:37.771Z,31943
2018-11-02T11:21:07.825Z,29737
2018-11-02T11:21:37.870Z,31940
2018-11-02T11:22:07.902Z,10690
2018-11-02T11:22:37.903Z,22697
2018-11-02T11:23:07.942Z,32623
2018-11-02T11:23:37.960Z,27707
2018-11-02T11:24:08.007Z,26733
2018-11-02T11:24:38.036Z,32550
2018-11-02T11:25:08.084Z,32407
2018-11-02T11:25:38.091Z,32213
2018-11-02T11:26:08.141Z,32113
2018-11-02T11:26:38.217Z,31650
2018-11-02T11:27:08.262Z,32423
2018-11-02T11:27:38.206Z,17457
2018-11-02T11:28:08.292Z,27473
2018-11-02T11:28:38.399Z,28970
2018-11-02T11:29:08.373Z,32487
2018-11-02T11:29:38.423Z,27687
2018-11-02T11:30:08.372Z,32033
2018-11-02T11:30:38.442Z,31783
2018-11-02T11:31:08.482Z,32040
2018-11-02T11:32:08.534Z,32183
2018-11-02T11:32:38.585Z,32237
2018-11-02T11:33:08.593Z,32433
2018-11-02T11:33:38.659Z,32463
2018-11-02T11:34:08.698Z,32297
2018-11-02T11:34:38.639Z,32427
2018-11-02T11:35:08.710Z,32460
2018-11-02T11:35:38.761Z,32340
2018-11-02T11:36:08.772Z,32477
2018-11-02T11:36:38.770Z,33100
2018-11-02T11:37:08.836Z,33660
2018-11-02T11:37:38.886Z,33577
2018-11-02T11:38:08.855Z,33173
2018-11-02T11:38:39.063Z,34090
2018-11-02T11:39:08.959Z,33920
2018-11-02T11:39:38.996Z,31393
2018-11-02T11:40:09.027Z,36560
2018-11-02T11:40:39.056Z,38650
2018-11-02T11:41:09.115Z,38417
2018-11-02T11:41:39.125Z,37750
2018-11-02T11:42:09.152Z,25330
2018-11-02T11:42:39.209Z,19020
2018-11-02T11:43:09.201Z,33300
2018-11-02T11:43:39.318Z,33480
2018-11-02T11:44:09.270Z,33353
2018-11-02T11:44:39.303Z,32780
2018-11-02T11:45:09.334Z,21863
2018-11-02T11:45:39.392Z,17037
2018-11-02T11:46:09.397Z,24020
2018-11-02T11:46:39.431Z,22383
2018-11-02T11:47:09.410Z,27027
2018-11-02T11:47:39.446Z,12073
2018-11-02T11:48:09.508Z,12660
2018-11-02T11:48:39.749Z,20653
2018-11-02T11:49:09.830Z,21040
2018-11-02T11:49:39.615Z,23593
2018-11-02T11:50:09.643Z,12737
2018-11-02T11:50:39.698Z,26803
2018-11-02T11:51:09.693Z,33907
2018-11-02T11:51:39.750Z,34100
2018-11-02T11:52:09.778Z,32683
2018-11-02T11:52:39.809Z,33297
2018-11-02T11:53:09.806Z,33163
2018-11-02T11:53:39.884Z,32720
2018-11-02T11:54:09.936Z,32883
2018-11-02T11:54:40.168Z,33477
2018-11-02T11:55:09.929Z,27537
2018-11-02T11:55:39.999Z,15763
2018-11-02T11:56:09.995Z,12700
2018-11-02T11:56:40.072Z,13630
2018-11-02T11:57:10.023Z,14817
2018-11-02T11:57:40.112Z,12263
2018-11-02T11:58:10.123Z,11560
2018-11-02T11:58:40.171Z,11647
2018-11-02T11:59:10.244Z,12177
2018-11-02T11:59:40.275Z,13177
2018-11-02T12:00:10.249Z,14457
2018-11-02T12:00:40.314Z,15487
2018-11-02T12:01:10.314Z,37913
2018-11-02T12:01:40.330Z,38710
2018-11-02T12:02:10.438Z,33497
2018-11-02T12:02:40.381Z,16950
2018-11-02T12:03:10.466Z,15693
2018-11-02T12:03:40.481Z,15600
2018-11-02T12:04:10.581Z,17410
2018-11-02T12:04:40.560Z,16377
2018-11-02T12:05:10.563Z,15903
2018-11-02T12:05:40.545Z,15670
2018-11-02T12:06:10.630Z,15757
2018-11-02T12:06:40.655Z,16147
2018-11-02T12:07:10.689Z,16743
2018-11-02T12:07:40.682Z,17443
2018-11-02T12:08:10.752Z,18167
2018-11-02T12:08:40.754Z,18687
2018-11-02T12:09:10.864Z,19020
2018-11-02T12:09:40.797Z,19123
2018-11-02T12:10:10.869Z,19177
2018-11-02T12:10:40.884Z,18963
2018-11-02T12:11:10.890Z,18533
2018-11-02T12:11:40.943Z,18267
2018-11-02T12:12:10.952Z,17373
2018-11-02T12:12:41.036Z,16870
2018-11-02T12:13:11.053Z,16207
2018-11-02T12:13:41.060Z,15917
2018-11-02T12:14:11.324Z,16977
2018-11-02T12:14:41.126Z,18143
2018-11-02T12:15:11.170Z,18560
2018-11-02T12:15:41.169Z,19440
2018-11-02T12:16:11.249Z,29027
2018-11-02T12:16:41.257Z,24043
2018-11-02T12:17:11.294Z,27993
2018-11-02T12:17:41.353Z,24337
2018-11-02T12:18:11.378Z,27063
2018-11-02T12:18:41.393Z,39137
2018-11-02T12:19:11.526Z,38603
2018-11-02T12:19:41.436Z,20933
2018-11-02T12:20:11.471Z,23690
2018-11-02T12:20:41.555Z,20187
2018-11-02T12:21:11.586Z,13763
2018-11-02T12:21:41.661Z,20713
2018-11-02T12:22:11.620Z,11597
2018-11-02T12:22:41.641Z,10230
2018-11-02T12:23:11.678Z,9477
2018-11-02T12:23:41.756Z,9053
2018-11-02T12:24:11.808Z,8847
2018-11-02T12:24:41.723Z,8683
2018-11-02T12:25:11.810Z,8593
2018-11-02T12:25:41.826Z,8540
2018-11-02T12:26:41.906Z,8630
2018-11-02T12:27:11.938Z,8737
2018-11-02T12:27:41.948Z,8763
2018-11-02T12:28:12.079Z,8880